Time;durP1;ratioP1;P1;durP2;ratioP2;P2;SDS_P1;SDS_P2;PMS_P1;PMS_P2;Temp;Humidity;BMP_temperature;BMP_pressure;BME280_temperature;BME280_humidity;BME280_pressure;Samples;Min_cycle;Max_cycle;Signal;HPM_P1;HPM_P2
2023/01/21 00:01:19;;;;;;;18.70;8.00;;;;;;;7.76;81.26;100364.12;107508;1254;98412;-62
2023/01/21 00:03:47;;;;;;;20.30;9.60;;;;;;;7.79;81.17;100361.36;107514;1253;110684;-61
2023/01/21 00:06:16;;;;;;;18.00;9.10;;;;;;;7.82;81.25;100362.88;107488;1253;109688;-61
2023/01/21 00:08:44;;;;;;;20.10;8.00;;;;;;;7.87;81.05;100356.08;107511;1253;108485;-61
2023/01/21 00:11:14;;;;;;;20.20;8.20;;;;;;;7.88;80.95;100351.73;107482;1259;97906;-60
2023/01/21 00:13:43;;;;;;;17.40;8.10;;;;;;;7.88;81.03;100357.98;107484;1259;97723;-60
2023/01/21 00:16:12;;;;;;;15.10;8.10;;;;;;;7.88;81.46;100359.41;107487;1253;112303;-60
2023/01/21 00:18:41;;;;;;;16.60;8.90;;;;;;;7.87;81.47;100363.09;107491;1253;108558;-61
2023/01/21 00:21:09;;;;;;;16.20;8.70;;;;;;;7.88;81.54;100359.92;107456;1253;108696;-60
2023/01/21 00:23:38;;;;;;;16.80;8.00;;;;;;;7.90;82.27;100354.77;107522;1254;97899;-61
2023/01/21 00:26:10;;;;;;;15.30;7.90;;;;;;;7.88;82.04;100350.85;107531;1254;97682;-61
2023/01/21 00:28:43;;;;;;;17.10;8.70;;;;;;;7.89;82.35;100353.80;107531;1254;111861;-60
2023/01/21 00:31:12;;;;;;;19.30;8.30;;;;;;;7.90;82.09;100350.83;107540;1254;109707;-59
2023/01/21 00:33:41;;;;;;;16.90;7.30;;;;;;;7.92;82.36;100343.02;107567;1254;108733;-59
2023/01/21 00:36:12;;;;;;;16.40;7.70;;;;;;;7.91;82.63;100338.22;107548;1254;98063;-60
2023/01/21 00:38:40;;;;;;;17.30;8.20;;;;;;;7.89;83.02;100338.95;107570;1254;98443;-60
2023/01/21 00:41:11;;;;;;;14.20;7.80;;;;;;;7.85;83.17;100332.33;107526;1254;110637;-59
2023/01/21 00:43:41;;;;;;;17.60;8.00;;;;;;;7.84;83.11;100328.82;107525;1254;110263;-59
2023/01/21 00:46:10;;;;;;;16.60;8.00;;;;;;;7.84;83.10;100325.92;107478;1256;108140;-60
2023/01/21 00:48:39;;;;;;;17.00;8.90;;;;;;;7.81;82.82;100323.37;107553;1254;97907;-60
2023/01/21 00:51:08;;;;;;;16.80;8.20;;;;;;;7.78;83.08;100324.50;107564;1254;97924;-60
2023/01/21 00:53:40;;;;;;;16.70;7.70;;;;;;;7.74;82.98;100336.28;107526;1253;111860;-60
2023/01/21 00:56:10;;;;;;;19.70;9.10;;;;;;;7.72;83.79;100336.78;107532;1254;110074;-59
2023/01/21 00:58:42;;;;;;;21.40;9.10;;;;;;;7.69;83.74;100337.93;107521;1253;108168;-60
2023/01/21 01:01:16;;;;;;;16.20;8.70;;;;;;;7.69;83.81;100335.59;107507;1253;98545;-60
2023/01/21 01:03:46;;;;;;;20.50;10.20;;;;;;;7.69;83.89;100334.35;107538;1254;98475;-60
2023/01/21 01:06:23;;;;;;;18.50;8.60;;;;;;;7.68;83.90;100332.63;107522;1253;111240;-59
2023/01/21 01:08:56;;;;;;;17.30;8.80;;;;;;;7.70;83.85;100328.56;107337;1254;109383;-60
2023/01/21 01:11:26;;;;;;;20.00;8.70;;;;;;;7.71;84.01;100331.13;107512;1253;108449;-59
2023/01/21 01:13:55;;;;;;;18.60;8.40;;;;;;;7.72;84.06;100335.58;107504;1254;97801;-59
2023/01/21 01:16:23;;;;;;;18.40;7.50;;;;;;;7.74;83.90;100334.52;107492;1254;97847;-60
2023/01/21 01:18:52;;;;;;;17.30;8.10;;;;;;;7.76;83.55;100323.95;107513;1253;111293;-59
2023/01/21 01:21:21;;;;;;;17.90;8.70;;;;;;;7.83;84.05;100324.22;107504;1253;110849;-60
2023/01/21 01:23:51;;;;;;;18.90;8.90;;;;;;;7.87;83.80;100331.77;107502;1254;108696;-61
2023/01/21 01:26:21;;;;;;;19.90;7.80;;;;;;;7.91;83.63;100336.29;107540;1254;97919;-59
2023/01/21 01:28:49;;;;;;;17.20;9.10;;;;;;;7.95;83.60;100340.41;107582;1254;97818;-60
2023/01/21 01:31:19;;;;;;;16.20;7.50;;;;;;;7.99;83.50;100337.40;107552;1254;111223;-59
2023/01/21 01:33:48;;;;;;;21.10;8.20;;;;;;;8.02;83.30;100338.07;107528;1254;109103;-59
2023/01/21 01:36:22;;;;;;;18.50;8.10;;;;;;;8.02;83.09;100338.55;107517;1254;108463;-60
2023/01/21 01:38:52;;;;;;;20.00;8.30;;;;;;;8.02;83.05;100336.94;107508;1254;98502;-60
2023/01/21 01:41:23;;;;;;;21.70;8.10;;;;;;;8.04;83.20;100331.77;107528;1253;97703;-60
2023/01/21 01:44:00;;;;;;;23.30;8.20;;;;;;;8.04;83.06;100334.15;107491;1258;111789;-61
2023/01/21 01:46:35;;;;;;;20.70;8.90;;;;;;;8.05;83.30;100334.92;107531;1254;109299;-60
2023/01/21 01:49:15;;;;;;;23.40;8.10;;;;;;;8.07;83.46;100333.70;107503;1259;108309;-60
2023/01/21 01:51:53;;;;;;;18.10;7.80;;;;;;;8.05;83.75;100335.99;107482;1253;97837;-60
2023/01/21 01:54:27;;;;;;;19.70;9.10;;;;;;;8.04;83.77;100338.63;107483;1254;97959;-61
2023/01/21 01:57:00;;;;;;;22.80;7.70;;;;;;;8.03;83.93;100336.15;107507;1253;111647;-60
2023/01/21 01:59:30;;;;;;;19.00;9.10;;;;;;;8.05;84.03;100334.92;107526;1254;108596;-60
2023/01/21 02:02:05;;;;;;;21.00;9.20;;;;;;;8.02;84.07;100337.52;107508;1259;107834;-60
2023/01/21 02:04:44;;;;;;;14.90;8.10;;;;;;;8.00;84.11;100344.45;107525;1254;97690;-60
2023/01/21 02:07:14;;;;;;;20.90;8.20;;;;;;;7.98;84.06;100348.70;107523;1253;97795;-60
2023/01/21 02:09:42;;;;;;;26.10;9.20;;;;;;;7.98;84.13;100353.36;107460;1254;111158;-61
2023/01/21 02:12:11;;;;;;;21.80;9.30;;;;;;;7.99;84.07;100355.59;107543;1254;109042;-60
2023/01/21 02:14:43;;;;;;;19.90;9.50;;;;;;;8.01;84.11;100353.88;107431;1255;108116;-60
2023/01/21 02:17:33;;;;;;;26.00;10.00;;;;;;;8.01;83.77;100359.55;107490;1259;97829;-60
2023/01/21 02:20:23;;;;;;;18.80;9.10;;;;;;;8.02;84.04;100362.30;107483;1254;97854;-60
2023/01/21 02:23:11;;;;;;;21.50;9.20;;;;;;;8.02;83.83;100363.10;107531;1254;111745;-60
2023/01/21 02:25:52;;;;;;;25.90;11.10;;;;;;;8.00;83.95;100360.56;107488;1259;110049;-61
2023/01/21 02:28:49;;;;;;;24.20;10.40;;;;;;;7.99;84.04;100359.48;107492;1258;108566;-60
2023/01/21 02:31:17;;;;;;;33.50;11.30;;;;;;;7.97;84.13;100361.44;107543;1253;98513;-60
2023/01/21 02:34:27;;;;;;;25.00;11.40;;;;;;;7.96;84.12;100364.45;107530;1253;97890;-60
2023/01/21 02:37:31;;;;;;;28.20;10.20;;;;;;;7.95;84.41;100355.55;107481;1254;113070;-60
2023/01/21 02:40:04;;;;;;;29.30;10.80;;;;;;;7.92;84.06;100347.98;107494;1254;109716;-61
2023/01/21 02:42:49;;;;;;;21.90;10.90;;;;;;;7.91;84.46;100339.87;107542;1254;108531;-60
2023/01/21 02:45:43;;;;;;;26.20;10.10;;;;;;;7.88;84.59;100335.51;107502;1254;97717;-60
2023/01/21 02:48:23;;;;;;;27.40;10.50;;;;;;;7.88;84.64;100338.36;107560;1255;97851;-60
2023/01/21 02:50:53;;;;;;;25.90;10.00;;;;;;;7.88;84.76;100339.41;107463;1255;110882;-61
2023/01/21 02:53:29;;;;;;;21.60;10.40;;;;;;;7.85;84.78;100344.67;107542;1259;108662;-59
2023/01/21 02:56:04;;;;;;;23.80;10.10;;;;;;;7.82;85.12;100347.56;107492;1254;108197;-59
2023/01/21 02:58:37;;;;;;;21.90;9.90;;;;;;;7.80;85.12;100349.48;107508;1254;97851;-59
2023/01/21 03:01:12;;;;;;;26.30;10.30;;;;;;;7.80;85.21;100358.98;107508;1254;97752;-59
2023/01/21 03:03:59;;;;;;;27.30;11.50;;;;;;;7.79;85.30;100359.94;107475;1254;111976;-61
2023/01/21 03:06:47;;;;;;;21.70;9.90;;;;;;;7.76;85.44;100359.68;107496;1258;110158;-60
2023/01/21 03:09:16;;;;;;;19.60;9.40;;;;;;;7.73;85.48;100364.00;107538;1254;108928;-59
2023/01/21 03:11:55;;;;;;;24.70;9.70;;;;;;;7.73;85.58;100361.67;107516;1256;97909;-59
2023/01/21 03:18:02;;;;;;;26.10;9.80;;;;;;;7.71;85.43;100360.83;107583;1256;112341;-61
2023/01/21 03:20:41;;;;;;;20.70;9.40;;;;;;;7.74;85.33;100361.09;107583;1254;109812;-60
2023/01/21 03:23:15;;;;;;;20.80;9.80;;;;;;;7.73;85.48;100354.52;107497;1256;108630;-59
2023/01/21 03:25:45;;;;;;;21.20;8.80;;;;;;;7.72;85.67;100354.30;107557;1254;97916;-60
2023/01/21 03:28:20;;;;;;;22.60;9.70;;;;;;;7.71;85.61;100356.89;107559;1254;97844;-60
2023/01/21 03:30:58;;;;;;;18.60;9.70;;;;;;;7.73;85.32;100352.61;107582;1257;112657;-59
2023/01/21 03:33:28;;;;;;;22.80;9.10;;;;;;;7.74;85.20;100344.16;107570;1254;109717;-59
2023/01/21 03:36:05;;;;;;;23.40;9.70;;;;;;;7.70;85.19;100335.01;107526;1256;108192;-60
2023/01/21 03:38:40;;;;;;;21.50;9.50;;;;;;;7.63;85.42;100337.56;107628;1256;97861;-59
2023/01/21 03:41:26;;;;;;;21.10;8.70;;;;;;;7.55;85.52;100340.38;107624;1254;97828;-59
2023/01/21 03:43:55;;;;;;;25.20;9.50;;;;;;;7.48;85.68;100342.63;107541;1254;112153;-60
2023/01/21 03:46:37;;;;;;;20.50;9.20;;;;;;;7.46;85.69;100344.78;107565;1254;111015;-59
2023/01/21 03:49:18;;;;;;;18.80;8.60;;;;;;;7.47;85.47;100350.77;107554;1254;107835;-60
2023/01/21 03:51:50;;;;;;;20.80;8.70;;;;;;;7.51;85.47;100352.25;107555;1254;97938;-59
2023/01/21 03:54:19;;;;;;;20.10;7.20;;;;;;;7.53;85.30;100355.30;107565;1253;98364;-60
2023/01/21 03:56:47;;;;;;;22.10;6.50;;;;;;;7.56;85.05;100359.52;107564;1254;111886;-59
2023/01/21 03:59:16;;;;;;;8.90;5.00;;;;;;;7.61;84.56;100365.39;107569;1254;110043;-59
2023/01/21 04:01:44;;;;;;;12.10;4.40;;;;;;;7.64;83.62;100365.50;107559;1257;106907;-60
2023/01/21 04:04:12;;;;;;;5.40;3.00;;;;;;;7.65;82.74;100371.27;107507;1255;97822;-59
2023/01/21 04:06:41;;;;;;;4.50;1.80;;;;;;;7.70;82.05;100377.98;107539;1254;98380;-61
2023/01/21 04:09:10;;;;;;;6.90;2.80;;;;;;;7.76;81.23;100381.27;107560;1257;111285;-60
2023/01/21 04:11:38;;;;;;;8.20;3.70;;;;;;;7.81;81.21;100389.78;107571;1254;108759;-61
2023/01/21 04:14:07;;;;;;;10.70;3.70;;;;;;;7.85;81.24;100388.73;107547;1254;108368;-59
2023/01/21 04:16:35;;;;;;;3.40;1.90;;;;;;;7.87;80.73;100388.73;107539;1256;97934;-59
2023/01/21 04:19:04;;;;;;;1.60;1.50;;;;;;;7.87;79.68;100402.33;107570;1257;98351;-59
2023/01/21 04:21:32;;;;;;;2.00;1.20;;;;;;;7.85;78.73;100401.39;107554;1254;111273;-59
2023/01/21 04:24:01;;;;;;;2.40;1.60;;;;;;;7.83;78.52;100402.80;107559;1257;109642;-60
2023/01/21 04:26:30;;;;;;;3.40;1.40;;;;;;;7.82;77.93;100408.20;107622;1254;109435;-60
2023/01/21 04:28:58;;;;;;;1.30;1.10;;;;;;;7.81;77.77;100405.13;107626;1255;97818;-60
2023/01/21 04:31:27;;;;;;;4.70;1.60;;;;;;;7.80;77.53;100408.45;107597;1254;97848;-59
2023/01/21 04:33:55;;;;;;;2.50;1.90;;;;;;;7.79;77.71;100419.24;107625;1254;111566;-69
2023/01/21 04:36:23;;;;;;;3.20;2.00;;;;;;;7.77;77.35;100417.92;107606;1254;110344;-60
2023/01/21 04:38:52;;;;;;;1.60;1.50;;;;;;;7.76;77.40;100425.02;107591;1254;109092;-60
2023/01/21 04:41:20;;;;;;;5.90;1.90;;;;;;;7.72;77.61;100430.38;107568;1256;97910;-59
2023/01/21 04:43:52;;;;;;;1.60;1.40;;;;;;;7.70;77.75;100433.00;107564;1255;97826;-60
2023/01/21 04:46:21;;;;;;;2.60;1.80;;;;;;;7.68;78.07;100434.05;107571;1254;112334;-60
2023/01/21 04:48:49;;;;;;;2.60;1.60;;;;;;;7.70;78.30;100432.27;107569;1257;109611;-60
2023/01/21 04:51:18;;;;;;;2.30;1.30;;;;;;;7.72;78.11;100435.11;107584;1254;108238;-60
2023/01/21 04:53:46;;;;;;;1.70;1.20;;;;;;;7.73;76.01;100439.85;107535;1254;97726;-59
2023/01/21 04:56:14;;;;;;;1.80;1.40;;;;;;;7.72;74.37;100448.55;107553;1254;98605;-60
2023/01/21 04:58:42;;;;;;;2.00;1.80;;;;;;;7.68;74.05;100458.31;107535;1257;111396;-61
2023/01/21 05:01:11;;;;;;;2.60;1.80;;;;;;;7.64;73.84;100464.39;107458;1254;109637;-61
2023/01/21 05:03:39;;;;;;;1.90;1.70;;;;;;;7.60;73.77;100467.73;107526;1254;108453;-60
2023/01/21 05:06:08;;;;;;;1.90;1.70;;;;;;;7.58;73.99;100467.70;107489;1254;97842;-60
2023/01/21 05:08:37;;;;;;;5.50;2.20;;;;;;;7.57;74.20;100470.07;107562;1256;97784;-60
2023/01/21 05:11:11;;;;;;;2.90;2.20;;;;;;;7.56;73.38;100477.32;107604;1257;111989;-60
2023/01/21 05:13:39;;;;;;;2.80;2.40;;;;;;;7.50;72.66;100475.27;107620;1254;110296;-63
2023/01/21 05:16:08;;;;;;;3.10;2.80;;;;;;;7.42;72.97;100467.02;107617;1257;108219;-60
2023/01/21 05:18:37;;;;;;;3.70;3.10;;;;;;;7.36;72.97;100470.70;107635;1254;97826;-60
2023/01/21 05:21:06;;;;;;;3.70;3.20;;;;;;;7.30;73.32;100479.71;107665;1253;98363;-60
2023/01/21 05:23:35;;;;;;;5.00;3.00;;;;;;;7.28;73.65;100495.44;107628;1254;111633;-60
2023/01/21 05:26:03;;;;;;;3.80;3.50;;;;;;;7.26;73.78;100495.00;107651;1254;110135;-61
2023/01/21 05:28:32;;;;;;;3.70;2.80;;;;;;;7.26;73.62;100497.36;107578;1256;107077;-60
2023/01/21 05:31:02;;;;;;;3.20;2.90;;;;;;;7.24;73.53;100509.66;107476;1254;97945;-61
2023/01/21 05:33:32;;;;;;;3.20;3.00;;;;;;;7.19;73.59;100511.63;107584;1253;98351;-59
2023/01/21 05:36:02;;;;;;;6.00;3.10;;;;;;;7.14;73.88;100512.71;107556;1256;111894;-60
2023/01/21 05:38:31;;;;;;;3.60;2.90;;;;;;;7.13;73.70;100521.58;107516;1254;109750;-59
2023/01/21 05:41:01;;;;;;;3.80;3.00;;;;;;;7.09;73.73;100526.69;107540;1254;108138;-61
2023/01/21 05:43:29;;;;;;;3.30;3.00;;;;;;;7.06;73.77;100543.31;107575;1255;97919;-60
2023/01/21 05:45:58;;;;;;;3.60;3.30;;;;;;;7.03;73.69;100559.43;107587;1255;97829;-62
2023/01/21 05:48:28;;;;;;;11.10;4.00;;;;;;;7.00;73.74;100575.38;107590;1254;111486;-60
2023/01/21 05:50:57;;;;;;;4.30;3.90;;;;;;;6.94;73.78;100579.39;107574;1254;109283;-60
2023/01/21 05:53:26;;;;;;;4.70;4.30;;;;;;;6.88;73.86;100590.10;107562;1257;108584;-58
2023/01/21 05:55:55;;;;;;;5.00;4.50;;;;;;;6.85;73.45;100598.37;107536;1254;97852;-60
2023/01/21 05:58:25;;;;;;;6.20;4.90;;;;;;;6.80;73.26;100607.50;107560;1254;97723;-59
2023/01/21 06:00:55;;;;;;;4.90;4.40;;;;;;;6.75;73.28;100614.63;107582;1253;112273;-59
2023/01/21 06:03:24;;;;;;;5.70;5.10;;;;;;;6.71;73.31;100617.77;107557;1256;109724;-60
2023/01/21 06:05:53;;;;;;;5.40;4.60;;;;;;;6.68;73.36;100628.91;107565;1254;107979;-59
2023/01/21 06:08:22;;;;;;;6.70;4.80;;;;;;;6.67;73.52;100645.05;107376;1254;98005;-60
2023/01/21 06:10:55;;;;;;;9.50;7.30;;;;;;;6.65;73.56;100648.73;107578;1254;97806;-60
2023/01/21 06:13:23;;;;;;;7.60;5.40;;;;;;;6.65;73.70;100649.94;107563;1254;111205;-60
2023/01/21 06:15:55;;;;;;;6.00;4.90;;;;;;;6.65;73.43;100651.38;107561;1254;109598;-60
2023/01/21 06:18:24;;;;;;;6.60;5.70;;;;;;;6.67;73.75;100662.63;107515;1254;107205;-60
2023/01/21 06:20:52;;;;;;;7.50;5.20;;;;;;;6.75;73.90;100664.23;107524;1254;98044;-60
2023/01/21 06:23:21;;;;;;;5.90;5.00;;;;;;;6.85;74.28;100662.92;107459;1254;97867;-59
2023/01/21 06:25:49;;;;;;;5.80;5.20;;;;;;;6.96;74.00;100665.14;107501;1257;111790;-60
2023/01/21 06:28:18;;;;;;;6.50;4.90;;;;;;;7.02;73.15;100667.39;107440;1254;109787;-60
2023/01/21 06:30:47;;;;;;;7.10;5.80;;;;;;;7.00;71.24;100681.46;107474;1257;108243;-60
2023/01/21 06:33:15;;;;;;;9.00;6.20;;;;;;;6.88;70.49;100684.11;107568;1253;97870;-60
2023/01/21 06:35:43;;;;;;;8.50;6.50;;;;;;;6.77;70.50;100692.93;107547;1254;98382;-60
2023/01/21 06:38:12;;;;;;;14.20;10.20;;;;;;;6.64;70.48;100702.45;107555;1254;111822;-61
2023/01/21 06:40:42;;;;;;;9.30;7.20;;;;;;;6.52;70.48;100715.77;107575;1254;109442;-60
2023/01/21 06:43:10;;;;;;;9.00;6.40;;;;;;;6.42;70.50;100726.61;107593;1254;107401;-61
2023/01/21 06:45:39;;;;;;;9.20;6.90;;;;;;;6.33;70.73;100724.98;107658;1254;97711;-59
2023/01/21 06:48:07;;;;;;;10.90;7.20;;;;;;;6.26;70.73;100715.46;107669;1254;97867;-61
2023/01/21 06:50:35;;;;;;;9.60;7.20;;;;;;;6.24;70.83;100715.27;107641;1253;111149;-60
2023/01/21 06:53:04;;;;;;;11.50;6.90;;;;;;;6.25;70.68;100713.61;107660;1254;109498;-60
2023/01/21 06:55:32;;;;;;;8.10;6.40;;;;;;;6.27;70.42;100718.41;107624;1256;107773;-60
2023/01/21 06:58:01;;;;;;;9.80;6.20;;;;;;;6.31;70.13;100709.66;107643;1254;97852;-60
2023/01/21 07:00:30;;;;;;;7.50;5.60;;;;;;;6.33;70.10;100715.88;107572;1254;98378;-59
2023/01/21 07:02:59;;;;;;;7.70;5.80;;;;;;;6.36;69.99;100719.39;107614;1254;111917;-60
2023/01/21 07:05:27;;;;;;;8.30;6.30;;;;;;;6.42;69.97;100728.59;107661;1254;110054;-61
2023/01/21 07:07:56;;;;;;;8.90;6.00;;;;;;;6.51;69.66;100742.02;107641;1254;108635;-61
2023/01/21 07:10:25;;;;;;;10.20;6.40;;;;;;;6.54;68.81;100744.82;107601;1254;97909;-59
2023/01/21 07:12:53;;;;;;;11.10;5.80;;;;;;;6.52;68.53;100747.08;107564;1254;98369;-60
2023/01/21 07:15:21;;;;;;;9.90;6.60;;;;;;;6.51;68.76;100745.59;107562;1254;111729;-60
2023/01/21 07:17:51;;;;;;;8.30;5.90;;;;;;;6.50;69.01;100744.61;107565;1254;109162;-59
2023/01/21 07:20:21;;;;;;;8.70;6.50;;;;;;;6.52;69.27;100746.25;107578;1254;108089;-60
2023/01/21 07:22:49;;;;;;;8.00;5.50;;;;;;;6.53;68.74;100752.77;107571;1254;97835;-60
2023/01/21 07:25:18;;;;;;;7.80;5.90;;;;;;;6.51;68.15;100756.64;107622;1254;97844;-60
2023/01/21 07:27:47;;;;;;;9.30;6.10;;;;;;;6.50;67.71;100762.59;107705;1254;110927;-61
2023/01/21 07:30:17;;;;;;;8.50;6.00;;;;;;;6.48;67.65;100769.70;107639;1254;109098;-58
2023/01/21 07:32:46;;;;;;;6.90;5.80;;;;;;;6.46;67.38;100767.34;107691;1253;107857;-59
2023/01/21 07:35:15;;;;;;;9.10;5.90;;;;;;;6.44;67.34;100775.70;107648;1254;97946;-59
2023/01/21 07:37:43;;;;;;;9.00;6.50;;;;;;;6.45;67.77;100778.83;107670;1253;98406;-61
2023/01/21 07:40:12;;;;;;;8.20;6.00;;;;;;;6.48;67.80;100780.23;107577;1254;111777;-59
2023/01/21 07:42:40;;;;;;;11.00;7.70;;;;;;;6.50;67.32;100780.80;107544;1254;109570;-59
2023/01/21 07:45:09;;;;;;;12.40;8.20;;;;;;;6.53;67.58;100798.91;107495;1254;108146;-60
2023/01/21 07:47:37;;;;;;;11.90;9.10;;;;;;;6.54;68.01;100801.84;107557;1254;97946;-59
2023/01/21 07:50:07;;;;;;;9.20;6.60;;;;;;;6.58;68.32;100804.05;107552;1254;97812;-60
2023/01/21 07:52:36;;;;;;;10.20;6.30;;;;;;;6.66;68.29;100810.77;107565;1254;111569;-61
2023/01/21 07:55:06;;;;;;;11.30;7.30;;;;;;;6.75;68.57;100811.77;107570;1254;108961;-58
2023/01/21 07:57:35;;;;;;;11.20;6.60;;;;;;;6.85;68.63;100819.93;107513;1254;108566;-59
2023/01/21 08:00:03;;;;;;;14.00;7.20;;;;;;;6.96;68.23;100829.20;107513;1254;97815;-59
2023/01/21 08:02:39;;;;;;;14.70;6.90;;;;;;;7.04;68.02;100835.69;107591;1253;97895;-59
2023/01/21 08:05:09;;;;;;;11.90;7.20;;;;;;;7.14;68.37;100845.36;107630;1253;111107;-60
2023/01/21 08:07:37;;;;;;;18.50;7.60;;;;;;;7.26;68.18;100853.02;107467;1254;110132;-60
2023/01/21 08:10:06;;;;;;;12.40;6.20;;;;;;;7.39;68.00;100849.93;107426;1254;108820;-59
2023/01/21 08:12:34;;;;;;;11.70;7.60;;;;;;;7.50;67.25;100858.05;107575;1254;97706;-59
2023/01/21 08:15:04;;;;;;;12.90;8.00;;;;;;;7.56;66.81;100870.70;107564;1252;97809;-59
2023/01/21 08:17:32;;;;;;;11.70;8.40;;;;;;;7.63;66.31;100871.56;107629;1254;111431;-60
2023/01/21 08:20:00;;;;;;;13.70;7.80;;;;;;;7.69;66.13;100877.92;107610;1256;110034;-59
2023/01/21 08:22:28;;;;;;;11.60;7.00;;;;;;;7.74;65.32;100883.92;107555;1254;108980;-59
2023/01/21 08:24:57;;;;;;;9.40;6.70;;;;;;;7.80;63.87;100893.46;107594;1254;97913;-60
2023/01/21 08:27:25;;;;;;;9.30;5.80;;;;;;;7.83;62.69;100897.36;107646;1253;97812;-60
2023/01/21 08:29:53;;;;;;;13.80;6.20;;;;;;;7.84;63.14;100899.63;107642;1254;113021;-59
2023/01/21 08:32:22;;;;;;;22.50;8.50;;;;;;;7.91;62.80;100910.42;107668;1254;109127;-60
2023/01/21 08:34:51;;;;;;;24.70;8.50;;;;;;;7.98;62.06;100916.08;107610;1254;108345;-59
2023/01/21 08:37:19;;;;;;;14.20;7.70;;;;;;;8.06;61.91;100924.21;107639;1254;97829;-59
2023/01/21 08:39:48;;;;;;;10.60;7.60;;;;;;;8.13;61.41;100919.05;107454;1253;97831;-60
2023/01/21 08:42:16;;;;;;;19.60;9.30;;;;;;;8.20;60.93;100924.85;107546;1254;111454;-60
2023/01/21 08:44:45;;;;;;;13.10;7.70;;;;;;;8.26;60.70;100933.67;107484;1253;109612;-59
2023/01/21 08:47:13;;;;;;;17.00;7.20;;;;;;;8.34;60.28;100928.61;107525;1253;107006;-60
2023/01/21 08:49:43;;;;;;;16.30;8.10;;;;;;;8.50;60.65;100922.70;107581;1254;97812;-60
2023/01/21 08:52:12;;;;;;;17.90;7.30;;;;;;;8.89;59.94;100918.81;107577;1254;97853;-60
2023/01/21 08:54:40;;;;;;;10.70;6.30;;;;;;;9.57;58.49;100913.91;107541;1254;113048;-59
2023/01/21 08:57:09;;;;;;;10.60;7.10;;;;;;;10.37;56.54;100913.76;107551;1252;111000;-60
2023/01/21 08:59:37;;;;;;;9.70;6.70;;;;;;;11.05;56.44;100912.39;107540;1254;107984;-60
2023/01/21 09:02:07;;;;;;;8.30;5.80;;;;;;;11.73;53.63;100912.27;107547;1252;97816;-59
2023/01/21 09:04:36;;;;;;;10.10;5.90;;;;;;;12.24;52.21;100912.40;107532;1252;98379;-60
2023/01/21 09:07:04;;;;;;;10.30;5.30;;;;;;;12.73;51.01;100918.85;107616;1254;111056;-60
2023/01/21 09:09:33;;;;;;;14.80;5.50;;;;;;;13.16;51.28;100917.96;107558;1253;109638;-60
2023/01/21 09:12:04;;;;;;;8.50;5.90;;;;;;;13.69;50.63;100922.70;107553;1256;108231;-59
2023/01/21 09:14:32;;;;;;;8.00;5.30;;;;;;;14.18;49.51;100920.17;107534;1254;97819;-60
2023/01/21 09:17:01;;;;;;;9.50;5.70;;;;;;;14.67;47.87;100925.72;107595;1254;97889;-60
2023/01/21 09:19:29;;;;;;;14.90;5.80;;;;;;;15.07;45.89;100929.69;107610;1254;112274;-60
2023/01/21 09:21:57;;;;;;;15.20;5.20;;;;;;;15.37;44.19;100930.12;107544;1254;109312;-60
2023/01/21 09:24:26;;;;;;;10.90;6.30;;;;;;;15.56;44.71;100939.60;107544;1254;108065;-61
2023/01/21 09:26:55;;;;;;;17.30;5.90;;;;;;;15.90;45.59;100935.45;107689;1252;97740;-60
2023/01/21 09:29:23;;;;;;;10.60;6.20;;;;;;;16.32;45.13;100938.77;107661;1253;97915;-60
2023/01/21 09:31:52;;;;;;;8.60;5.40;;;;;;;16.77;44.30;100944.11;107649;1254;112778;-60
2023/01/21 09:34:20;;;;;;;9.10;5.90;;;;;;;17.01;41.99;100944.88;107659;1253;109319;-61
2023/01/21 09:36:48;;;;;;;10.60;6.20;;;;;;;17.32;43.19;100944.03;107610;1253;108462;-59
2023/01/21 09:39:17;;;;;;;9.30;5.20;;;;;;;17.86;42.12;100950.36;107613;1253;97882;-59
2023/01/21 09:41:51;;;;;;;20.80;5.70;;;;;;;18.25;39.02;100957.48;107583;1253;97733;-60
2023/01/21 09:44:28;;;;;;;11.00;4.10;;;;;;;18.43;39.22;100967.68;107542;1256;110617;-59
2023/01/21 09:47:05;;;;;;;12.60;4.70;;;;;;;18.68;36.76;100974.59;107595;1253;110555;-59
2023/01/21 09:49:43;;;;;;;10.60;4.80;;;;;;;18.67;37.26;100982.99;107551;1253;107673;-60
2023/01/21 09:52:30;;;;;;;11.90;4.70;;;;;;;18.97;37.60;100971.17;107560;1254;97857;-60
2023/01/21 09:55:00;;;;;;;6.80;4.70;;;;;;;19.26;37.07;100963.19;107529;1253;97703;-61
2023/01/21 09:57:31;;;;;;;15.30;4.90;;;;;;;19.28;36.49;100966.20;107602;1252;112161;-60
2023/01/21 10:00:18;;;;;;;6.40;4.00;;;;;;;19.75;35.15;100962.24;107613;1253;110107;-61
2023/01/21 10:02:52;;;;;;;9.50;3.90;;;;;;;19.98;33.59;100962.48;107556;1253;108749;-61
2023/01/21 10:05:23;;;;;;;6.80;3.60;;;;;;;20.13;32.18;100967.04;107571;1253;97701;-61
2023/01/21 10:08:17;;;;;;;5.50;3.80;;;;;;;20.00;31.62;100978.58;107579;1253;97800;-61
2023/01/21 10:11:02;;;;;;;6.40;4.20;;;;;;;19.94;32.23;100971.48;107560;1254;112288;-60
2023/01/21 10:14:01;;;;;;;8.40;4.20;;;;;;;20.00;32.57;100967.74;107585;1254;109658;-61
2023/01/21 10:16:37;;;;;;;9.80;4.90;;;;;;;20.21;32.77;100970.48;107508;1252;108312;-60
2023/01/21 10:19:16;;;;;;;10.20;5.40;;;;;;;20.46;32.69;100970.00;107584;1252;97848;-60
2023/01/21 10:21:55;;;;;;;7.70;4.40;;;;;;;20.69;33.30;100975.15;107533;1253;97895;-61
2023/01/21 10:24:30;;;;;;;7.10;4.70;;;;;;;21.02;32.40;100976.45;107637;1254;111398;-60
2023/01/21 10:26:59;;;;;;;13.10;4.60;;;;;;;21.11;31.77;100968.52;107654;1254;109394;-60
2023/01/21 10:29:28;;;;;;;8.10;4.50;;;;;;;21.23;30.57;100963.08;107685;1252;107746;-60
2023/01/21 10:32:02;;;;;;;5.40;3.70;;;;;;;21.35;29.64;100970.75;107659;1252;97844;-60
2023/01/21 10:34:38;;;;;;;13.00;3.90;;;;;;;21.26;29.60;100970.62;107644;1254;97753;-60
2023/01/21 10:37:35;;;;;;;6.00;4.20;;;;;;;21.38;30.06;100968.87;107661;1255;111491;-60
2023/01/21 10:40:16;;;;;;;5.30;3.50;;;;;;;21.69;29.49;100969.02;107572;1254;109930;-61
2023/01/21 10:43:05;;;;;;;7.10;3.90;;;;;;;21.90;27.67;100975.06;107515;1254;107832;-60
2023/01/21 10:45:36;;;;;;;9.60;3.90;;;;;;;21.82;28.17;100981.49;106909;1253;97920;-61
2023/01/21 10:48:26;;;;;;;6.10;4.40;;;;;;;21.86;28.80;100994.65;107559;1253;97934;-60
2023/01/21 10:51:12;;;;;;;5.90;3.90;;;;;;;21.91;27.83;101006.02;107594;1254;111766;-62
2023/01/21 10:53:55;;;;;;;8.10;4.20;;;;;;;21.68;28.33;101003.60;107552;1254;108917;-61
2023/01/21 10:56:37;;;;;;;8.10;4.70;;;;;;;21.76;28.96;101007.26;107549;1252;107679;-61
2023/01/21 10:59:11;;;;;;;8.00;4.90;;;;;;;21.97;27.73;101013.05;107558;1254;97842;-61
2023/01/21 11:01:44;;;;;;;9.60;5.10;;;;;;;21.86;28.28;101000.25;107563;1254;98485;-61
2023/01/21 11:04:23;;;;;;;;;;;;;;;21.96;29.79;100991.69;107607;1254;112183;-61
2023/01/21 11:07:03;;;;;;;9.40;4.10;;;;;;;22.42;28.56;100987.75;107495;1256;109379;-61
2023/01/21 11:09:38;;;;;;;11.50;4.40;;;;;;;22.58;27.51;100993.66;107525;1254;107498;-61
2023/01/21 11:12:11;;;;;;;15.00;4.40;;;;;;;22.66;27.77;100978.30;107565;1254;97850;-61
2023/01/21 11:14:39;;;;;;;5.60;4.50;;;;;;;22.96;27.69;100974.35;107647;1253;97746;-60
2023/01/21 11:17:09;;;;;;;11.60;4.60;;;;;;;23.29;26.25;100983.09;107577;1253;111462;-61
2023/01/21 11:19:37;;;;;;;6.70;4.40;;;;;;;23.37;26.46;100983.52;107555;1254;111109;-61
2023/01/21 11:22:11;;;;;;;5.80;4.70;;;;;;;23.49;26.13;100980.95;107565;1256;108380;-61
2023/01/21 11:24:48;;;;;;;8.90;3.80;;;;;;;23.49;25.94;100976.68;107626;1254;97850;-59
2023/01/21 11:27:37;;;;;;;6.90;4.00;;;;;;;23.64;26.08;100969.30;107683;1253;98369;-60
2023/01/21 11:30:26;;;;;;;13.30;4.00;;;;;;;23.85;26.70;100964.85;107657;1254;112326;-60
2023/01/21 11:33:17;;;;;;;4.70;3.40;;;;;;;24.23;25.94;100964.39;107629;1253;109369;-61
2023/01/21 11:35:46;;;;;;;12.40;4.10;;;;;;;24.34;26.79;100973.44;107686;1253;108329;-60
2023/01/21 11:38:34;;;;;;;7.30;3.90;;;;;;;24.32;25.70;100980.85;107630;1253;97957;-60
2023/01/21 11:41:09;;;;;;;7.40;3.00;;;;;;;24.43;25.96;100986.56;107617;1254;97960;-61